Other Surface Observations
Issued by NWS Great Falls, MT

Home | Current Version | Previous Version | Text Only | Print | Product List | Glossary On
Versions: 1 2 3 4 5 6 7 8 9 10 11 12 13 14 15 16 17 18 19 20 21 22 23 24 25 26 27 28 29 30 31 32 33 34 35 36 37 38 39 40 41 42 43 44 45 46 47 48 49 50
912
SXUS55 KTFX 201529
OSOTFX

AREA AWOS OBSERVATIONS
NATIONAL WEATHER SERVICE GREAT FALLS MT
0929 AM MDT Fri Apr 20 2018

METAR K3U3 201528Z AUTO 03000KT 06/M05 A3019
METAR KS71 201529Z AUTO 08000KT 10SM 07/03 A3013
METAR K38S 201529Z AUTO 26000KT 10SM 07/M03 A3023
METAR K6S5 201529Z AUTO 12000 10SM 07/M03 A3022
METAR K1S3 201528Z AUTO 11004KT 10/02 A3011
METAR KPWD 201528Z AUTO 13011KT 10SM 06/01 A3021
METAR KPO1 201528Z AUTO 13007KT  10SM 08/00 A3019



USA.gov is the U.S. government's official web portal to all federal, state and local government web resources and services.